createdAt,value
2019-03-20T00:03:15.202Z,24.13
2019-03-20T00:08:19.960Z,27.57
2019-03-20T00:13:24.689Z,22.67
2019-03-20T00:18:29.427Z,21.27
2019-03-20T00:23:33.950Z,22.37
2019-03-20T00:28:38.478Z,22.93
2019-03-20T00:33:43.040Z,26.07
2019-03-20T00:38:47.784Z,25.20
2019-03-20T00:43:52.526Z,25.20
2019-03-20T00:48:57.034Z,23.50
2019-03-20T00:54:01.575Z,24.43
2019-03-20T00:59:06.414Z,22.70
2019-03-20T01:04:10.877Z,22.67
2019-03-20T01:09:15.617Z,23.27
2019-03-20T01:14:20.129Z,22.07
2019-03-20T01:19:25.998Z,21.00
2019-03-20T01:24:30.765Z,17.87
2019-03-20T01:29:35.506Z,16.23
2019-03-20T01:34:39.941Z,16.73
2019-03-20T01:39:44.682Z,15.73
2019-03-20T01:44:50.635Z,13.80
2019-03-20T01:49:55.395Z,15.40
2019-03-20T01:55:00.138Z,13.47
2019-03-20T02:00:07.644Z,13.57
2019-03-20T02:05:12.386Z,12.57
2019-03-20T02:10:17.909Z,13.43
2019-03-20T02:15:22.485Z,12.03
2019-03-20T02:20:27.230Z,13.70
2019-03-20T02:25:32.509Z,11.40
2019-03-20T02:30:37.298Z,10.67
2019-03-20T02:35:51.374Z,13.53
2019-03-20T02:40:47.779Z,17.70
2019-03-20T02:45:52.473Z,17.17
2019-03-20T02:50:56.829Z,12.83
2019-03-20T02:56:01.629Z,11.60
2019-03-20T03:01:05.971Z,14.07
2019-03-20T03:06:10.532Z,72.33
2019-03-20T03:11:15.044Z,20.23
2019-03-20T03:16:19.687Z,11.70
2019-03-20T03:21:24.128Z,13.53
2019-03-20T03:26:28.642Z,11.27
2019-03-20T03:31:33.308Z,14.43
2019-03-20T03:36:37.743Z,21.67
2019-03-20T03:41:42.103Z,12.93
2019-03-20T03:46:46.583Z,14.50
2019-03-20T03:51:51.032Z,18.43
2019-03-20T03:56:55.786Z,17.77
2019-03-20T04:02:00.308Z,60.63
2019-03-20T04:07:04.967Z,46.37
2019-03-20T04:12:09.292Z,17.30
2019-03-20T04:17:19.652Z,16.37
2019-03-20T04:22:24.409Z,17.87
2019-03-20T04:27:28.929Z,14.70
2019-03-20T04:32:33.586Z,15.67
2019-03-20T04:37:38.328Z,15.27
2019-03-20T04:42:43.070Z,14.03
2019-03-20T04:47:47.504Z,14.23
2019-03-20T04:52:52.246Z,14.67
2019-03-20T04:57:56.988Z,13.43
2019-03-20T05:03:01.734Z,14.10
2019-03-20T05:08:06.165Z,14.07
2019-03-20T05:13:11.213Z,15.17
2019-03-20T05:18:15.955Z,14.63
2019-03-20T05:23:20.697Z,23.30
2019-03-20T05:28:25.439Z,19.80
2019-03-20T05:33:30.182Z,21.77
2019-03-20T05:38:34.924Z,26.53
2019-03-20T05:43:39.460Z,23.67
2019-03-20T05:48:43.872Z,20.07
2019-03-20T05:53:48.306Z,14.87
2019-03-20T05:58:52.738Z,18.57
2019-03-20T06:03:57.405Z,12.20
2019-03-20T06:09:01.837Z,16.93
2019-03-20T06:14:06.595Z,10.90
2019-03-20T06:19:11.089Z,10.68
2019-03-20T06:24:15.526Z,13.85
2019-03-20T06:29:20.308Z,14.30
2019-03-20T06:34:24.948Z,17.77
2019-03-20T06:39:29.451Z,16.90
2019-03-20T06:44:34.108Z,16.20
2019-03-20T06:49:38.535Z,13.17
2019-03-20T06:54:43.285Z,11.93
2019-03-20T07:00:15.061Z,10.50
2019-03-20T07:05:31.786Z,11.73
2019-03-20T07:10:45.743Z,9.20
2019-03-20T07:15:50.178Z,12.27
2019-03-20T07:20:55.843Z,12.57
2019-03-20T07:26:00.580Z,9.73
2019-03-20T07:31:14.709Z,9.60
2019-03-20T07:36:11.172Z,10.07
2019-03-20T07:41:16.054Z,10.67
2019-03-20T07:46:20.787Z,10.07
2019-03-20T07:51:25.212Z,11.85
2019-03-20T07:56:29.956Z,8.37
2019-03-20T08:01:34.677Z,9.28
2019-03-20T08:06:40.357Z,11.25
2019-03-20T08:11:45.100Z,7.67
2019-03-20T08:16:49.535Z,5.75
2019-03-20T08:21:53.942Z,6.60
2019-03-20T08:26:59.029Z,6.17
2019-03-20T08:32:03.638Z,7.28
2019-03-20T08:37:08.502Z,7.28
2019-03-20T08:42:12.936Z,5.67
2019-03-20T08:47:17.445Z,6.12
2019-03-20T08:52:22.113Z,5.65
2019-03-20T08:57:26.854Z,4.37
2019-03-20T09:02:31.904Z,4.42
2019-03-20T09:07:46.660Z,6.05
2019-03-20T09:12:42.616Z,4.05
2019-03-20T09:17:47.050Z,4.55
2019-03-20T09:22:51.464Z,4.53
2019-03-20T09:27:55.899Z,2.00
2019-03-20T09:33:00.354Z,2.83
2019-03-20T09:38:04.764Z,3.20
2019-03-20T09:43:09.530Z,2.25
2019-03-20T09:48:13.967Z,4.00
2019-03-20T09:53:18.713Z,4.28
2019-03-20T09:58:23.448Z,3.60
2019-03-20T10:03:27.859Z,3.80
2019-03-20T10:08:32.626Z,3.22
2019-03-20T10:13:37.138Z,3.37
2019-03-20T10:18:41.801Z,3.72
2019-03-20T10:23:46.236Z,2.90
2019-03-20T10:28:50.978Z,2.92
2019-03-20T10:33:55.721Z,2.87
2019-03-20T10:39:06.586Z,2.72
2019-03-20T10:44:06.740Z,2.42
2019-03-20T10:49:11.147Z,2.87
2019-03-20T10:54:16.577Z,2.10
2019-03-20T10:59:21.275Z,2.92
2019-03-20T11:04:25.707Z,2.52
2019-03-20T11:09:30.448Z,2.30
2019-03-20T11:14:34.882Z,5.20
2019-03-20T11:19:39.398Z,2.50
2019-03-20T11:24:44.077Z,2.08
2019-03-20T11:29:48.466Z,2.70
2019-03-20T11:34:53.212Z,3.05
2019-03-20T11:39:57.646Z,2.25
2019-03-20T11:45:02.181Z,2.80
2019-03-20T11:50:09.918Z,2.20
2019-03-20T11:55:14.661Z,3.20
2019-03-20T12:00:21.552Z,2.55
2019-03-20T12:05:26.068Z,3.00
2019-03-20T12:10:31.958Z,2.33
2019-03-20T12:15:36.392Z,3.08
2019-03-20T12:20:41.135Z,2.85
2019-03-20T12:25:45.877Z,2.75
2019-03-20T12:30:50.311Z,3.00
2019-03-20T12:35:55.057Z,3.30
2019-03-20T12:40:59.796Z,3.00
2019-03-20T12:46:04.202Z,2.85
2019-03-20T12:51:08.974Z,2.42
2019-03-20T12:56:13.481Z,2.72
2019-03-20T13:01:18.147Z,2.40
2019-03-20T13:06:22.891Z,2.90
2019-03-20T13:11:27.939Z,3.40
2019-03-20T13:16:32.679Z,2.85
2019-03-20T13:21:37.221Z,3.40
2019-03-20T13:26:41.636Z,2.40
2019-03-20T13:31:46.599Z,2.67
2019-03-20T13:36:51.043Z,2.20
2019-03-20T13:41:55.469Z,2.77
2019-03-20T13:46:59.906Z,2.35
2019-03-20T13:52:04.647Z,2.42
2019-03-20T13:57:09.670Z,2.92
2019-03-20T14:02:14.211Z,4.20
2019-03-20T14:07:20.076Z,2.62
2019-03-20T14:12:24.616Z,3.00
2019-03-20T14:17:29.336Z,3.50
2019-03-20T14:22:33.900Z,3.83
2019-03-20T14:27:38.426Z,2.08
2019-03-20T14:32:43.165Z,3.42
2019-03-20T14:37:47.702Z,2.65
2019-03-20T14:42:52.384Z,2.90
2019-03-20T14:47:57.113Z,2.50
2019-03-20T14:53:01.546Z,3.58
2019-03-20T14:58:05.979Z,2.30
2019-03-20T15:03:10.416Z,3.17
2019-03-20T15:08:15.130Z,3.75
2019-03-20T15:13:19.561Z,3.08
2019-03-20T15:18:24.332Z,3.83
2019-03-20T15:23:28.849Z,2.58
2019-03-20T15:28:33.518Z,2.95
2019-03-20T15:33:38.256Z,2.45
2019-03-20T15:38:42.685Z,3.65
2019-03-20T15:43:47.429Z,3.83
2019-03-20T15:48:52.246Z,5.58
2019-03-20T15:53:56.918Z,3.55
2019-03-20T15:59:01.672Z,6.55
2019-03-20T16:04:06.681Z,4.17
2019-03-20T16:09:11.443Z,10.35
2019-03-20T16:14:16.268Z,10.15
2019-03-20T16:19:20.927Z,4.62
2019-03-20T16:24:26.898Z,8.75
2019-03-20T16:29:31.411Z,3.95
2019-03-20T16:34:35.842Z,5.72
2019-03-20T16:39:42.658Z,4.85
2019-03-20T16:44:47.170Z,6.12
2019-03-20T16:49:52.431Z,6.92
2019-03-20T16:54:56.990Z,5.65
2019-03-20T17:00:05.500Z,8.80
2019-03-20T17:10:21.210Z,8.35
2019-03-20T17:15:28.446Z,6.47
2019-03-20T17:20:33.213Z,5.00
2019-03-20T17:25:37.697Z,4.58
2019-03-20T17:30:47.570Z,4.42
2019-03-20T17:35:52.336Z,4.87
2019-03-20T17:40:56.763Z,4.78
2019-03-20T17:46:01.504Z,4.58
2019-03-20T17:51:08.093Z,5.53
2019-03-20T17:56:12.833Z,4.00
2019-03-20T18:01:17.551Z,4.35
2019-03-20T18:06:21.982Z,4.25
2019-03-20T18:11:26.486Z,4.80
2019-03-20T18:16:31.184Z,4.37
2019-03-20T18:21:35.599Z,5.72
2019-03-20T18:26:40.359Z,6.28
2019-03-20T18:31:46.427Z,6.08
2019-03-20T18:36:51.048Z,8.98
2019-03-20T18:41:57.909Z,14.65
2019-03-20T18:47:02.092Z,15.38
2019-03-20T18:52:07.168Z,7.92
2019-03-20T18:57:11.883Z,7.30
2019-03-20T19:02:16.628Z,6.60
2019-03-20T19:07:21.347Z,11.33
2019-03-20T19:12:25.879Z,7.92
2019-03-20T19:17:30.543Z,6.50
2019-03-20T19:22:34.992Z,13.00
2019-03-20T19:27:39.734Z,20.65
2019-03-20T19:32:44.462Z,49.08
2019-03-20T19:37:48.895Z,18.42
2019-03-20T19:42:53.637Z,19.45
2019-03-20T19:47:58.077Z,9.90
2019-03-20T19:53:03.120Z,8.75
2019-03-20T19:58:07.557Z,7.00
2019-03-20T20:03:12.297Z,6.55
2019-03-20T20:08:17.018Z,6.00
2019-03-20T20:13:21.758Z,6.37
2019-03-20T20:18:26.526Z,6.70
2019-03-20T20:23:31.268Z,6.37
2019-03-20T20:28:35.698Z,7.12
2019-03-20T20:33:40.440Z,7.72
2019-03-20T20:38:45.168Z,7.87
2019-03-20T20:43:49.935Z,6.97
2019-03-20T20:48:54.358Z,6.45
2019-03-20T20:53:58.770Z,6.90
2019-03-20T20:59:03.540Z,7.80
2019-03-20T21:04:08.277Z,8.05
2019-03-20T21:09:13.025Z,8.38
2019-03-20T21:14:17.760Z,8.25
2019-03-20T21:19:32.034Z,9.30
2019-03-20T21:24:36.742Z,9.43
2019-03-20T21:29:59.639Z,10.45
2019-03-20T21:35:30.081Z,9.98
2019-03-20T21:40:46.904Z,10.10
2019-03-20T21:46:18.678Z,11.10
2019-03-20T21:51:23.497Z,10.28
2019-03-20T21:56:47.704Z,10.38
2019-03-20T22:02:14.454Z,11.55
2019-03-20T22:07:19.099Z,11.50
2019-03-20T22:12:41.983Z,10.78
2019-03-20T22:18:07.623Z,10.30
2019-03-20T22:23:23.781Z,12.03
2019-03-20T22:28:50.891Z,12.33
2019-03-20T22:34:24.203Z,12.10
2019-03-20T22:39:51.369Z,12.25
2019-03-20T22:45:07.785Z,11.50
2019-03-20T22:50:15.602Z,12.98
2019-03-20T22:55:45.921Z,13.53
2019-03-20T23:00:53.885Z,13.45
2019-03-20T23:05:59.906Z,14.85
2019-03-20T23:11:04.669Z,12.95
2019-03-20T23:16:12.485Z,13.10
2019-03-20T23:21:16.922Z,14.38
2019-03-20T23:26:21.355Z,12.35
2019-03-20T23:31:26.096Z,13.43
2019-03-20T23:36:30.720Z,12.35
2019-03-20T23:41:35.247Z,12.65
2019-03-20T23:46:40.015Z,13.50
2019-03-20T23:51:44.526Z,16.42
2019-03-20T23:56:50.805Z,14.65
